createdAt,value
2018-06-29T00:01:47.631Z,66.88
2018-06-29T00:04:53.157Z,66.68
2018-06-29T00:07:58.396Z,67.47
2018-06-29T00:11:04.021Z,67.56
2018-06-29T00:14:08.855Z,66.94
2018-06-29T00:17:13.792Z,67.00
2018-06-29T00:20:18.596Z,67.36
2018-06-29T00:23:23.899Z,67.12
2018-06-29T00:26:28.730Z,67.75
2018-06-29T00:29:33.517Z,68.05
2018-06-29T00:32:39.023Z,67.24
2018-06-29T00:35:44.753Z,67.44
2018-06-29T00:38:49.556Z,67.40
2018-06-29T00:41:54.369Z,67.66
2018-06-29T00:44:59.564Z,68.05
2018-06-29T00:48:04.610Z,67.72
2018-06-29T00:51:09.917Z,67.54
2018-06-29T00:54:14.728Z,68.02
2018-06-29T00:57:19.565Z,68.55
2018-06-29T01:00:25.211Z,68.04
2018-06-29T01:03:31.276Z,68.02
2018-06-29T01:06:36.469Z,68.49
2018-06-29T01:09:41.319Z,68.27
2018-06-29T01:12:46.441Z,68.41
2018-06-29T01:15:51.868Z,68.78
2018-06-29T01:18:57.649Z,68.86
2018-06-29T01:22:03.969Z,68.84
2018-06-29T01:25:09.367Z,68.72
2018-06-29T01:28:15.309Z,69.32
2018-06-29T01:31:20.477Z,68.41
2018-06-29T01:34:26.222Z,68.77
2018-06-29T01:37:31.148Z,69.24
2018-06-29T01:40:36.320Z,69.62
2018-06-29T01:43:41.557Z,68.99
2018-06-29T01:46:47.518Z,68.83
2018-06-29T01:49:52.659Z,69.86
2018-06-29T01:52:58.373Z,69.40
2018-06-29T01:56:03.178Z,69.94
2018-06-29T01:59:08.508Z,69.15
2018-06-29T02:02:13.560Z,69.75
2018-06-29T02:05:18.384Z,69.49
2018-06-29T02:08:24.163Z,69.51
2018-06-29T02:11:29.939Z,69.99
2018-06-29T02:14:35.884Z,70.45
2018-06-29T02:17:40.716Z,70.25
2018-06-29T02:20:45.596Z,69.57
2018-06-29T02:23:50.391Z,70.14
2018-06-29T02:26:55.184Z,70.40
2018-06-29T02:30:00.426Z,69.94
2018-06-29T02:33:05.978Z,70.82
2018-06-29T02:36:10.818Z,70.01
2018-06-29T02:39:16.642Z,70.29
2018-06-29T02:42:21.468Z,69.93
2018-06-29T02:45:26.826Z,69.97
2018-06-29T02:48:32.584Z,70.41
2018-06-29T02:51:37.493Z,70.38
2018-06-29T02:54:42.644Z,70.24
2018-06-29T02:57:47.467Z,70.78
2018-06-29T03:00:52.850Z,70.52
2018-06-29T03:03:58.563Z,70.14
2018-06-29T03:07:03.419Z,70.44
2018-06-29T03:10:08.274Z,70.56
2018-06-29T03:13:13.057Z,70.67
2018-06-29T03:16:18.446Z,70.66
2018-06-29T03:19:24.274Z,70.44
2018-06-29T03:22:30.287Z,70.70
2018-06-29T03:25:35.130Z,70.61
2018-06-29T03:28:40.386Z,70.35
2018-06-29T03:31:45.216Z,70.68
2018-06-29T03:34:50.260Z,70.65
2018-06-29T03:37:55.997Z,69.94
2018-06-29T03:41:00.808Z,70.33
2018-06-29T03:44:06.360Z,69.64
2018-06-29T03:47:11.234Z,69.78
2018-06-29T03:50:16.053Z,69.80
2018-06-29T03:53:21.596Z,69.91
2018-06-29T03:56:27.300Z,70.14
2018-06-29T03:59:32.470Z,69.20
2018-06-29T04:02:38.287Z,70.14
2018-06-29T04:05:43.135Z,69.80
2018-06-29T04:08:48.804Z,69.26
2018-06-29T04:11:55.107Z,69.44
2018-06-29T04:15:00.766Z,69.01
2018-06-29T04:18:07.772Z,69.22
2018-06-29T04:21:13.225Z,69.22
2018-06-29T04:24:19.051Z,68.56
2018-06-29T04:27:24.056Z,69.26
2018-06-29T04:30:29.249Z,69.09
2018-06-29T04:33:34.324Z,69.10
2018-06-29T04:36:40.296Z,69.97
2018-06-29T04:39:45.133Z,70.01
2018-06-29T04:42:50.005Z,69.53
2018-06-29T04:45:55.860Z,70.58
2018-06-29T04:49:00.750Z,69.82
2018-06-29T04:52:06.329Z,70.56
2018-06-29T04:55:11.157Z,71.28
2018-06-29T04:58:16.510Z,70.90
2018-06-29T05:01:21.338Z,71.64
2018-06-29T05:04:26.175Z,70.67
2018-06-29T05:07:31.011Z,70.83
2018-06-29T05:10:36.273Z,69.98
2018-06-29T05:13:41.052Z,70.06
2018-06-29T05:16:46.897Z,70.06
2018-06-29T05:19:51.966Z,70.12
2018-06-29T05:22:56.814Z,69.46
2018-06-29T05:26:02.157Z,69.36
2018-06-29T05:29:07.342Z,69.12
2018-06-29T05:32:13.312Z,69.59
2018-06-29T05:35:18.145Z,69.77
2018-06-29T05:38:23.605Z,68.79
2018-06-29T05:41:29.665Z,69.30
2018-06-29T05:44:35.177Z,69.39
2018-06-29T05:47:40.007Z,69.50
2018-06-29T05:50:45.466Z,69.60
2018-06-29T05:53:50.277Z,69.56
2018-06-29T05:56:55.612Z,69.21
2018-06-29T06:00:00.654Z,69.39
2018-06-29T06:03:07.023Z,69.01
2018-06-29T06:06:12.722Z,69.04
2018-06-29T06:09:18.877Z,69.62
2018-06-29T06:12:24.609Z,69.32
2018-06-29T06:15:29.426Z,69.66
2018-06-29T06:18:35.296Z,69.16
2018-06-29T06:21:40.119Z,68.89
2018-06-29T06:24:45.505Z,68.68
2018-06-29T06:27:50.640Z,69.06
2018-06-29T06:30:57.294Z,69.38
2018-06-29T06:34:02.658Z,69.33
2018-06-29T06:37:08.633Z,69.19
2018-06-29T06:40:14.312Z,69.02
2018-06-29T06:43:20.174Z,68.96
2018-06-29T06:46:25.669Z,68.71
2018-06-29T06:49:30.504Z,68.62
2018-06-29T06:52:37.217Z,68.38
2018-06-29T06:55:42.649Z,69.38
2018-06-29T06:58:47.481Z,69.36
2018-06-29T07:01:52.325Z,68.72
2018-06-29T07:04:57.399Z,69.90
2018-06-29T07:08:02.283Z,69.54
2018-06-29T07:11:07.161Z,69.57
2018-06-29T07:14:12.492Z,68.70
2018-06-29T07:17:17.325Z,69.76
2018-06-29T07:20:23.241Z,68.73
2018-06-29T07:23:28.797Z,69.32
2018-06-29T07:26:33.706Z,69.06
2018-06-29T07:29:38.828Z,69.17
2018-06-29T07:32:43.765Z,68.84
2018-06-29T07:35:49.688Z,69.38
2018-06-29T07:38:55.839Z,68.54
2018-06-29T07:42:01.132Z,68.38
2018-06-29T07:45:06.049Z,68.51
2018-06-29T07:48:11.922Z,69.19
2018-06-29T07:51:17.796Z,68.61
2018-06-29T07:54:22.864Z,68.29
2018-06-29T07:57:28.046Z,68.96
2018-06-29T08:00:33.757Z,68.08
2018-06-29T08:03:39.517Z,68.15
2018-06-29T08:06:44.590Z,68.88
2018-06-29T08:09:50.336Z,68.12
2018-06-29T08:12:56.213Z,67.93
2018-06-29T08:16:01.001Z,67.59
2018-06-29T08:19:06.790Z,68.14
2018-06-29T08:22:12.441Z,67.78
2018-06-29T08:25:18.045Z,67.62
2018-06-29T08:28:24.058Z,67.66
2018-06-29T08:31:29.211Z,67.71
2018-06-29T08:34:34.866Z,67.17
2018-06-29T08:37:40.218Z,67.52
2018-06-29T08:40:46.484Z,66.85
2018-06-29T08:43:51.814Z,67.03
2018-06-29T08:46:57.806Z,67.54
2018-06-29T08:50:02.678Z,66.56
2018-06-29T08:53:08.114Z,66.60
2018-06-29T08:56:12.963Z,66.34
2018-06-29T08:59:17.796Z,65.70
2018-06-29T09:02:23.045Z,66.48
2018-06-29T09:05:28.881Z,66.58
2018-06-29T09:08:33.710Z,65.91
2018-06-29T09:11:39.652Z,66.15
2018-06-29T09:14:45.192Z,65.86
2018-06-29T09:17:50.942Z,65.50
2018-06-29T09:20:55.804Z,64.30
2018-06-29T09:24:01.145Z,64.47
2018-06-29T09:27:06.206Z,64.03
2018-06-29T09:30:11.794Z,63.62
2018-06-29T09:33:16.953Z,63.56
2018-06-29T09:36:22.794Z,63.44
2018-06-29T09:39:27.748Z,63.54
2018-06-29T09:42:32.549Z,63.73
2018-06-29T09:45:37.568Z,63.76
2018-06-29T09:48:43.264Z,63.42
2018-06-29T09:51:49.106Z,62.83
2018-06-29T09:54:55.409Z,62.17
2018-06-29T09:58:00.673Z,62.43
2018-06-29T10:01:05.572Z,62.14
2018-06-29T10:04:10.749Z,61.81
2018-06-29T10:07:15.629Z,61.24
2018-06-29T10:10:21.465Z,59.35
2018-06-29T10:13:26.304Z,59.55
2018-06-29T10:16:31.577Z,60.05
2018-06-29T10:19:36.581Z,60.10
2018-06-29T10:22:41.566Z,61.08
2018-06-29T10:25:47.229Z,60.81
2018-06-29T10:28:52.438Z,60.30
2018-06-29T10:31:58.233Z,60.51
2018-06-29T10:35:03.049Z,60.94
2018-06-29T10:38:08.642Z,60.81
2018-06-29T10:41:14.408Z,60.36
2018-06-29T10:44:20.263Z,61.35
2018-06-29T10:47:25.112Z,61.51
2018-06-29T10:50:29.909Z,60.67
2018-06-29T10:53:35.889Z,61.40
2018-06-29T10:56:41.625Z,60.04
2018-06-29T10:59:46.449Z,60.64
2018-06-29T11:02:51.701Z,59.83
2018-06-29T11:09:00.030Z,59.51
2018-06-29T11:12:05.711Z,59.96
2018-06-29T11:15:11.677Z,60.12
2018-06-29T11:18:17.743Z,59.79
2018-06-29T11:21:23.717Z,59.79
2018-06-29T11:24:28.550Z,60.17
2018-06-29T11:27:33.404Z,60.35
2018-06-29T11:30:38.743Z,59.17
2018-06-29T11:33:43.545Z,59.08
2018-06-29T11:36:49.160Z,59.89
2018-06-29T11:39:54.138Z,58.67
2018-06-29T11:42:58.964Z,57.59
2018-06-29T11:46:04.265Z,58.23
2018-06-29T11:49:09.696Z,57.40
2018-06-29T11:52:15.135Z,56.90
2018-06-29T11:55:20.333Z,56.28
2018-06-29T11:58:26.077Z,56.57
2018-06-29T12:01:32.217Z,57.63
2018-06-29T12:04:37.631Z,56.91
2018-06-29T12:07:43.190Z,57.87
2018-06-29T12:10:48.063Z,57.44
2018-06-29T12:13:53.265Z,57.12
2018-06-29T12:16:58.890Z,58.16
2018-06-29T12:20:04.573Z,57.75
2018-06-29T12:23:09.445Z,58.39
2018-06-29T12:26:14.764Z,57.41
2018-06-29T12:29:20.641Z,58.26
2018-06-29T12:32:25.872Z,58.44
2018-06-29T12:35:30.917Z,57.89
2018-06-29T12:38:36.160Z,57.50
2018-06-29T12:41:41.340Z,57.39
2018-06-29T12:44:47.188Z,57.57
2018-06-29T12:47:52.320Z,57.41
2018-06-29T12:50:57.464Z,57.49
2018-06-29T12:54:03.222Z,57.66
2018-06-29T12:57:08.850Z,56.37
2018-06-29T13:00:14.023Z,57.41
2018-06-29T13:03:20.086Z,57.08
2018-06-29T13:06:25.756Z,56.42
2018-06-29T13:09:30.904Z,57.24
2018-06-29T13:12:35.765Z,55.72
2018-06-29T13:15:41.586Z,54.41
2018-06-29T13:18:47.062Z,55.38
2018-06-29T13:21:51.891Z,55.10
2018-06-29T13:24:57.442Z,54.01
2018-06-29T13:28:03.331Z,54.68
2018-06-29T13:31:09.200Z,54.81
2018-06-29T13:34:15.039Z,54.51
2018-06-29T13:37:20.519Z,54.33
2018-06-29T13:40:25.346Z,53.80
2018-06-29T13:43:30.420Z,54.43
2018-06-29T13:46:35.212Z,54.77
2018-06-29T13:49:41.074Z,54.26
2018-06-29T13:52:45.933Z,52.91
2018-06-29T13:55:52.513Z,52.83
2018-06-29T13:58:57.529Z,52.79
2018-06-29T14:02:02.374Z,53.63
2018-06-29T14:05:07.185Z,53.96
2018-06-29T14:08:11.992Z,53.57
2018-06-29T14:11:17.660Z,52.51
2018-06-29T14:14:23.318Z,53.05
2018-06-29T14:17:28.493Z,53.42
2018-06-29T14:20:33.366Z,53.11
2018-06-29T14:23:38.237Z,53.63
2018-06-29T14:26:43.267Z,53.67
2018-06-29T14:29:48.575Z,52.08
2018-06-29T14:32:54.845Z,53.06
2018-06-29T14:36:00.018Z,52.36
2018-06-29T14:39:07.833Z,53.31
2018-06-29T14:42:13.263Z,51.91
2018-06-29T14:45:18.084Z,52.10
2018-06-29T14:48:23.389Z,51.82
2018-06-29T14:51:28.425Z,50.34
2018-06-29T14:54:34.219Z,50.99
2018-06-29T14:57:39.057Z,52.29
2018-06-29T15:00:44.637Z,51.59
2018-06-29T15:03:49.945Z,49.44
2018-06-29T15:06:54.791Z,50.90
2018-06-29T15:09:59.607Z,51.50
2018-06-29T15:13:05.363Z,51.25
2018-06-29T15:16:10.635Z,51.84
2018-06-29T15:19:15.877Z,51.19
2018-06-29T15:22:20.686Z,52.14
2018-06-29T15:25:26.404Z,51.44
2018-06-29T15:28:32.330Z,49.13
2018-06-29T15:31:37.582Z,50.83
2018-06-29T15:34:43.781Z,50.04
2018-06-29T15:37:48.645Z,50.43
2018-06-29T15:40:54.481Z,49.41
2018-06-29T15:44:00.061Z,50.37
2018-06-29T15:47:06.191Z,50.75
2018-06-29T15:50:11.016Z,51.02
2018-06-29T15:53:16.874Z,48.29
2018-06-29T15:56:22.056Z,49.34
2018-06-29T15:59:27.964Z,48.72
2018-06-29T16:02:34.688Z,48.47
2018-06-29T16:05:40.336Z,49.41
2018-06-29T16:08:45.849Z,50.09
2018-06-29T16:11:50.693Z,49.55
2018-06-29T16:14:56.060Z,49.26
2018-06-29T16:18:00.830Z,47.84
2018-06-29T16:21:05.636Z,48.01
2018-06-29T16:24:11.183Z,49.02
2018-06-29T16:27:16.044Z,49.40
2018-06-29T16:30:21.295Z,49.15
2018-06-29T16:33:26.907Z,49.89
2018-06-29T16:36:32.062Z,49.31
2018-06-29T16:39:37.650Z,49.05
2018-06-29T16:42:43.508Z,49.40
2018-06-29T16:45:48.649Z,48.71
2018-06-29T16:48:53.972Z,49.10
2018-06-29T16:51:58.790Z,49.08
2018-06-29T16:55:04.283Z,50.47
2018-06-29T16:58:11.058Z,51.43
2018-06-29T17:01:15.903Z,51.46
2018-06-29T17:04:21.543Z,51.66
2018-06-29T17:07:27.388Z,52.33
2018-06-29T17:10:32.189Z,52.02
2018-06-29T17:13:37.437Z,53.05
2018-06-29T17:16:42.245Z,52.74
2018-06-29T17:19:48.205Z,51.29
2018-06-29T17:22:53.224Z,52.19
2018-06-29T17:25:58.305Z,51.44
2018-06-29T17:29:05.216Z,51.33
2018-06-29T17:32:10.199Z,51.35
2018-06-29T17:35:15.001Z,51.94
2018-06-29T17:38:20.133Z,52.97
2018-06-29T17:41:24.962Z,52.03
2018-06-29T17:44:30.189Z,53.37
2018-06-29T17:47:35.109Z,52.71
2018-06-29T17:50:40.813Z,51.53
2018-06-29T17:53:46.692Z,52.17
2018-06-29T17:56:51.666Z,52.05
2018-06-29T17:59:56.994Z,53.20
2018-06-29T18:03:01.853Z,53.46
2018-06-29T18:06:08.157Z,53.97
2018-06-29T18:09:12.997Z,54.15
2018-06-29T18:12:18.152Z,54.49
2018-06-29T18:15:23.800Z,54.16
2018-06-29T18:18:29.572Z,54.57
2018-06-29T18:21:35.081Z,55.63
2018-06-29T18:24:40.962Z,55.21
2018-06-29T18:27:46.802Z,55.64
2018-06-29T18:30:52.353Z,56.16
2018-06-29T18:33:58.461Z,56.31
2018-06-29T18:37:03.526Z,55.74
2018-06-29T18:40:08.906Z,56.35
2018-06-29T18:43:14.041Z,56.82
2018-06-29T18:46:19.853Z,57.10
2018-06-29T18:49:25.029Z,56.78
2018-06-29T18:52:30.081Z,56.24
2018-06-29T18:55:35.224Z,56.98
2018-06-29T18:58:42.389Z,57.77
2018-06-29T19:01:48.844Z,57.94
2018-06-29T19:04:53.706Z,57.51
2018-06-29T19:07:58.957Z,57.67
2018-06-29T19:11:04.733Z,58.37
2018-06-29T19:14:10.185Z,57.83
2018-06-29T19:17:15.030Z,58.16
2018-06-29T19:20:20.218Z,58.45
2018-06-29T19:23:25.029Z,57.61
2018-06-29T19:26:30.197Z,58.90
2018-06-29T19:29:35.043Z,58.98
2018-06-29T19:32:40.758Z,59.13
2018-06-29T19:35:46.645Z,59.16
2018-06-29T19:38:51.491Z,59.38
2018-06-29T19:41:56.501Z,59.50
2018-06-29T19:45:01.857Z,59.07
2018-06-29T19:48:06.722Z,59.98
2018-06-29T19:51:11.920Z,59.47
2018-06-29T19:54:17.665Z,59.05
2018-06-29T19:57:22.524Z,59.91
2018-06-29T20:00:27.970Z,59.13
2018-06-29T20:03:32.778Z,59.05
2018-06-29T20:06:37.602Z,59.44
2018-06-29T20:09:43.000Z,60.08
2018-06-29T20:12:47.830Z,59.12
2018-06-29T20:15:52.651Z,59.48
2018-06-29T20:18:59.209Z,60.06
2018-06-29T20:22:04.018Z,60.26
2018-06-29T20:25:09.698Z,59.75
2018-06-29T20:28:14.506Z,60.46
2018-06-29T20:31:20.397Z,59.96
2018-06-29T20:34:25.221Z,59.88
2018-06-29T20:37:30.933Z,60.21
2018-06-29T20:40:36.676Z,60.71
2018-06-29T20:43:41.509Z,60.33
2018-06-29T20:46:46.853Z,61.10
2018-06-29T20:49:51.660Z,60.73
2018-06-29T20:52:56.493Z,60.63
2018-06-29T20:56:02.093Z,61.01
2018-06-29T20:59:07.853Z,61.02
2018-06-29T21:02:13.466Z,61.26
2018-06-29T21:05:18.325Z,60.95
2018-06-29T21:08:23.578Z,60.62
2018-06-29T21:11:30.369Z,61.72
2018-06-29T21:14:36.081Z,61.14
2018-06-29T21:17:41.289Z,61.94
2018-06-29T21:20:48.338Z,61.99
2018-06-29T21:23:54.178Z,61.55
2018-06-29T21:26:59.047Z,61.50
2018-06-29T21:30:05.101Z,61.72
2018-06-29T21:33:10.265Z,60.95
2018-06-29T21:36:15.789Z,61.41
2018-06-29T21:39:20.602Z,61.86
2018-06-29T21:42:25.956Z,62.69
2018-06-29T21:45:30.813Z,61.74
2018-06-29T21:48:36.197Z,62.09
2018-06-29T21:51:41.366Z,62.94
2018-06-29T21:54:46.322Z,62.83
2018-06-29T21:57:51.173Z,62.78
2018-06-29T22:00:56.049Z,63.14
2018-06-29T22:04:00.879Z,62.88
2018-06-29T22:07:06.447Z,63.03
2018-06-29T22:10:12.461Z,62.80
2018-06-29T22:13:17.301Z,62.18
2018-06-29T22:16:22.171Z,63.00
2018-06-29T22:19:28.016Z,63.32
2018-06-29T22:22:33.240Z,63.04
2018-06-29T22:25:38.440Z,62.83
2018-06-29T22:28:44.246Z,63.41
2018-06-29T22:31:49.392Z,62.92
2018-06-29T22:34:55.175Z,63.17
2018-06-29T22:38:01.012Z,63.72
2018-06-29T22:41:06.505Z,63.82
2018-06-29T22:44:12.457Z,64.14
2018-06-29T22:47:18.437Z,63.80
2018-06-29T22:50:24.224Z,64.49
2018-06-29T22:53:30.092Z,63.99
2018-06-29T22:56:36.128Z,64.63
2018-06-29T22:59:41.234Z,64.62
2018-06-29T23:02:46.062Z,65.52
2018-06-29T23:05:51.526Z,65.56
2018-06-29T23:08:56.341Z,65.22
2018-06-29T23:12:01.622Z,65.69
2018-06-29T23:15:06.728Z,65.42
2018-06-29T23:18:11.821Z,66.07
2018-06-29T23:21:17.221Z,66.04
2018-06-29T23:24:22.613Z,65.89
2018-06-29T23:27:28.085Z,66.01
2018-06-29T23:30:33.841Z,66.25
2018-06-29T23:33:39.298Z,66.48
2018-06-29T23:36:46.488Z,66.72
2018-06-29T23:39:51.937Z,66.13
2018-06-29T23:42:57.045Z,66.94
2018-06-29T23:46:01.878Z,66.55
2018-06-29T23:49:07.632Z,67.01
2018-06-29T23:52:13.749Z,67.20
2018-06-29T23:55:19.901Z,66.43
2018-06-29T23:58:25.021Z,67.04
